sensor_id;sensor_type;location;lat;lon;timestamp;P1;durP1;ratioP1;P2;durP2;ratioP2
54328;SDS011;40710;51.120;13.136;2023-03-30T00:00:13;5.18;;;5.18;;
54328;SDS011;40710;51.120;13.136;2023-03-30T00:02:41;5.28;;;5.28;;
54328;SDS011;40710;51.120;13.136;2023-03-30T00:05:07;5.63;;;5.63;;
54328;SDS011;40710;51.120;13.136;2023-03-30T00:07:32;5.19;;;5.19;;
54328;SDS011;40710;51.120;13.136;2023-03-30T00:09:56;4.97;;;4.97;;
54328;SDS011;40710;51.120;13.136;2023-03-30T00:12:21;5.35;;;5.29;;
54328;SDS011;40710;51.120;13.136;2023-03-30T00:14:46;5.24;;;5.16;;
54328;SDS011;40710;51.120;13.136;2023-03-30T00:17:10;5.46;;;5.43;;
54328;SDS011;40710;51.120;13.136;2023-03-30T00:19:35;5.16;;;5.14;;
54328;SDS011;40710;51.120;13.136;2023-03-30T00:22:00;5.29;;;5.29;;
54328;SDS011;40710;51.120;13.136;2023-03-30T00:24:25;5.07;;;5.06;;
54328;SDS011;40710;51.120;13.136;2023-03-30T00:26:49;5.28;;;5.28;;
54328;SDS011;40710;51.120;13.136;2023-03-30T00:29:14;5.31;;;5.31;;
54328;SDS011;40710;51.120;13.136;2023-03-30T00:31:39;5.65;;;5.65;;
54328;SDS011;40710;51.120;13.136;2023-03-30T00:34:03;5.34;;;5.34;;
54328;SDS011;40710;51.120;13.136;2023-03-30T00:36:28;5.45;;;5.45;;
54328;SDS011;40710;51.120;13.136;2023-03-30T00:38:53;5.50;;;5.50;;
54328;SDS011;40710;51.120;13.136;2023-03-30T00:41:18;5.30;;;5.26;;
54328;SDS011;40710;51.120;13.136;2023-03-30T00:43:55;5.53;;;5.53;;
54328;SDS011;40710;51.120;13.136;2023-03-30T00:46:25;5.24;;;5.24;;
54328;SDS011;40710;51.120;13.136;2023-03-30T00:48:50;5.47;;;5.44;;
54328;SDS011;40710;51.120;13.136;2023-03-30T00:51:15;5.54;;;5.54;;
54328;SDS011;40710;51.120;13.136;2023-03-30T00:53:44;5.25;;;5.25;;
54328;SDS011;40710;51.120;13.136;2023-03-30T00:56:13;5.45;;;5.45;;
54328;SDS011;40710;51.120;13.136;2023-03-30T00:58:42;5.35;;;5.35;;
54328;SDS011;40710;51.120;13.136;2023-03-30T01:01:08;5.40;;;5.40;;
54328;SDS011;40710;51.120;13.136;2023-03-30T01:03:36;5.53;;;5.53;;
54328;SDS011;40710;51.120;13.136;2023-03-30T01:06:06;5.38;;;5.38;;
54328;SDS011;40710;51.120;13.136;2023-03-30T01:08:31;5.54;;;5.53;;
54328;SDS011;40710;51.120;13.136;2023-03-30T01:10:56;5.27;;;5.27;;
54328;SDS011;40710;51.120;13.136;2023-03-30T01:13:21;5.33;;;5.27;;
54328;SDS011;40710;51.120;13.136;2023-03-30T01:15:50;5.25;;;5.20;;
54328;SDS011;40710;51.120;13.136;2023-03-30T01:18:48;5.23;;;5.23;;
54328;SDS011;40710;51.120;13.136;2023-03-30T01:24:17;4.91;;;4.91;;
54328;SDS011;40710;51.120;13.136;2023-03-30T01:27:01;4.74;;;4.74;;
54328;SDS011;40710;51.120;13.136;2023-03-30T01:32:14;4.95;;;4.95;;
54328;SDS011;40710;51.120;13.136;2023-03-30T01:37:41;4.42;;;4.42;;
54328;SDS011;40710;51.120;13.136;2023-03-30T01:40:31;4.74;;;4.74;;
54328;SDS011;40710;51.120;13.136;2023-03-30T01:45:42;4.43;;;4.43;;
54328;SDS011;40710;51.120;13.136;2023-03-30T01:51:09;4.39;;;4.39;;
54328;SDS011;40710;51.120;13.136;2023-03-30T01:53:58;4.60;;;4.60;;
54328;SDS011;40710;51.120;13.136;2023-03-30T01:56:37;4.34;;;4.34;;
54328;SDS011;40710;51.120;13.136;2023-03-30T01:59:35;4.44;;;4.44;;
54328;SDS011;40710;51.120;13.136;2023-03-30T02:02:10;4.21;;;4.21;;
54328;SDS011;40710;51.120;13.136;2023-03-30T02:04:39;4.11;;;4.11;;
54328;SDS011;40710;51.120;13.136;2023-03-30T02:07:09;4.49;;;4.49;;
54328;SDS011;40710;51.120;13.136;2023-03-30T02:09:40;4.32;;;4.31;;
54328;SDS011;40710;51.120;13.136;2023-03-30T02:12:09;4.47;;;4.47;;
54328;SDS011;40710;51.120;13.136;2023-03-30T02:14:37;4.16;;;4.16;;
54328;SDS011;40710;51.120;13.136;2023-03-30T02:17:06;4.34;;;4.34;;
54328;SDS011;40710;51.120;13.136;2023-03-30T02:19:40;4.37;;;4.37;;
54328;SDS011;40710;51.120;13.136;2023-03-30T02:22:05;4.42;;;4.42;;
54328;SDS011;40710;51.120;13.136;2023-03-30T02:24:29;4.27;;;4.27;;
54328;SDS011;40710;51.120;13.136;2023-03-30T02:26:56;4.40;;;4.40;;
54328;SDS011;40710;51.120;13.136;2023-03-30T02:29:25;4.23;;;4.23;;
54328;SDS011;40710;51.120;13.136;2023-03-30T02:31:51;4.29;;;4.29;;
54328;SDS011;40710;51.120;13.136;2023-03-30T02:40:20;3.93;;;3.93;;
54328;SDS011;40710;51.120;13.136;2023-03-30T02:43:12;3.81;;;3.81;;
54328;SDS011;40710;51.120;13.136;2023-03-30T02:45:47;4.41;;;4.41;;
54328;SDS011;40710;51.120;13.136;2023-03-30T02:53:41;3.62;;;3.62;;
54328;SDS011;40710;51.120;13.136;2023-03-30T02:56:16;3.88;;;3.88;;
54328;SDS011;40710;51.120;13.136;2023-03-30T02:58:55;3.99;;;3.98;;
54328;SDS011;40710;51.120;13.136;2023-03-30T03:01:42;4.01;;;3.99;;
54328;SDS011;40710;51.120;13.136;2023-03-30T03:04:24;4.01;;;4.01;;
54328;SDS011;40710;51.120;13.136;2023-03-30T03:06:52;3.97;;;3.95;;
54328;SDS011;40710;51.120;13.136;2023-03-30T03:09:19;3.96;;;3.94;;
54328;SDS011;40710;51.120;13.136;2023-03-30T03:11:44;4.05;;;4.02;;
54328;SDS011;40710;51.120;13.136;2023-03-30T03:14:10;3.78;;;3.76;;
54328;SDS011;40710;51.120;13.136;2023-03-30T03:16:35;3.74;;;3.74;;
54328;SDS011;40710;51.120;13.136;2023-03-30T03:19:01;3.78;;;3.78;;
54328;SDS011;40710;51.120;13.136;2023-03-30T03:21:26;3.83;;;3.83;;
54328;SDS011;40710;51.120;13.136;2023-03-30T03:23:52;3.79;;;3.79;;
54328;SDS011;40710;51.120;13.136;2023-03-30T03:26:17;4.07;;;4.07;;
54328;SDS011;40710;51.120;13.136;2023-03-30T03:28:41;4.06;;;4.06;;
54328;SDS011;40710;51.120;13.136;2023-03-30T03:31:06;3.57;;;3.57;;
54328;SDS011;40710;51.120;13.136;2023-03-30T03:33:31;3.78;;;3.78;;
54328;SDS011;40710;51.120;13.136;2023-03-30T03:35:57;4.47;;;4.47;;
54328;SDS011;40710;51.120;13.136;2023-03-30T03:38:23;4.49;;;4.47;;
54328;SDS011;40710;51.120;13.136;2023-03-30T03:40:48;4.13;;;4.11;;
54328;SDS011;40710;51.120;13.136;2023-03-30T03:43:14;3.91;;;3.90;;
54328;SDS011;40710;51.120;13.136;2023-03-30T03:45:38;4.61;;;4.61;;
54328;SDS011;40710;51.120;13.136;2023-03-30T03:48:03;4.55;;;4.55;;
54328;SDS011;40710;51.120;13.136;2023-03-30T03:50:28;4.68;;;4.68;;
54328;SDS011;40710;51.120;13.136;2023-03-30T03:52:52;4.66;;;4.66;;
54328;SDS011;40710;51.120;13.136;2023-03-30T03:55:17;4.82;;;4.81;;
54328;SDS011;40710;51.120;13.136;2023-03-30T03:57:41;4.54;;;4.51;;
54328;SDS011;40710;51.120;13.136;2023-03-30T04:00:08;4.79;;;4.78;;
54328;SDS011;40710;51.120;13.136;2023-03-30T04:02:38;4.42;;;4.41;;
54328;SDS011;40710;51.120;13.136;2023-03-30T04:05:03;4.43;;;4.42;;
54328;SDS011;40710;51.120;13.136;2023-03-30T04:07:28;4.53;;;4.53;;
54328;SDS011;40710;51.120;13.136;2023-03-30T04:09:54;4.77;;;4.76;;
54328;SDS011;40710;51.120;13.136;2023-03-30T04:12:18;4.45;;;4.44;;
54328;SDS011;40710;51.120;13.136;2023-03-30T04:14:43;4.72;;;4.71;;
54328;SDS011;40710;51.120;13.136;2023-03-30T04:17:08;4.81;;;4.78;;
54328;SDS011;40710;51.120;13.136;2023-03-30T04:19:32;5.30;;;5.27;;
54328;SDS011;40710;51.120;13.136;2023-03-30T04:21:57;4.69;;;4.63;;
54328;SDS011;40710;51.120;13.136;2023-03-30T04:24:22;4.53;;;4.48;;
54328;SDS011;40710;51.120;13.136;2023-03-30T04:26:47;4.62;;;4.57;;
54328;SDS011;40710;51.120;13.136;2023-03-30T04:29:12;4.76;;;4.72;;
54328;SDS011;40710;51.120;13.136;2023-03-30T04:31:38;4.51;;;4.49;;
54328;SDS011;40710;51.120;13.136;2023-03-30T04:34:05;4.50;;;4.48;;
54328;SDS011;40710;51.120;13.136;2023-03-30T04:36:29;4.62;;;4.62;;
54328;SDS011;40710;51.120;13.136;2023-03-30T04:38:54;4.24;;;4.24;;
54328;SDS011;40710;51.120;13.136;2023-03-30T04:41:21;3.80;;;3.77;;
54328;SDS011;40710;51.120;13.136;2023-03-30T04:43:49;4.15;;;4.14;;
54328;SDS011;40710;51.120;13.136;2023-03-30T04:46:13;3.88;;;3.87;;
54328;SDS011;40710;51.120;13.136;2023-03-30T04:48:38;4.14;;;4.13;;
54328;SDS011;40710;51.120;13.136;2023-03-30T04:51:02;3.98;;;3.92;;
54328;SDS011;40710;51.120;13.136;2023-03-30T04:53:27;3.38;;;3.35;;
54328;SDS011;40710;51.120;13.136;2023-03-30T04:55:51;3.62;;;3.60;;
54328;SDS011;40710;51.120;13.136;2023-03-30T04:58:16;3.49;;;3.48;;
54328;SDS011;40710;51.120;13.136;2023-03-30T05:00:42;3.81;;;3.79;;
54328;SDS011;40710;51.120;13.136;2023-03-30T05:03:06;3.62;;;3.61;;
54328;SDS011;40710;51.120;13.136;2023-03-30T05:05:31;3.64;;;3.62;;
54328;SDS011;40710;51.120;13.136;2023-03-30T05:07:56;3.61;;;3.60;;
54328;SDS011;40710;51.120;13.136;2023-03-30T05:10:21;3.49;;;3.47;;
54328;SDS011;40710;51.120;13.136;2023-03-30T05:12:46;3.79;;;3.78;;
54328;SDS011;40710;51.120;13.136;2023-03-30T05:15:11;3.54;;;3.52;;
54328;SDS011;40710;51.120;13.136;2023-03-30T05:17:36;3.50;;;3.48;;
54328;SDS011;40710;51.120;13.136;2023-03-30T05:20:01;3.53;;;3.51;;
54328;SDS011;40710;51.120;13.136;2023-03-30T05:22:28;3.86;;;3.82;;
54328;SDS011;40710;51.120;13.136;2023-03-30T05:24:53;3.90;;;3.85;;
54328;SDS011;40710;51.120;13.136;2023-03-30T05:27:18;3.96;;;3.91;;
54328;SDS011;40710;51.120;13.136;2023-03-30T05:29:43;4.10;;;4.05;;
54328;SDS011;40710;51.120;13.136;2023-03-30T05:32:07;4.23;;;4.20;;
54328;SDS011;40710;51.120;13.136;2023-03-30T05:34:32;4.11;;;4.05;;
54328;SDS011;40710;51.120;13.136;2023-03-30T05:36:57;4.07;;;4.02;;
54328;SDS011;40710;51.120;13.136;2023-03-30T05:39:21;7.96;;;7.83;;
54328;SDS011;40710;51.120;13.136;2023-03-30T05:41:46;4.70;;;4.62;;
54328;SDS011;40710;51.120;13.136;2023-03-30T05:44:11;3.65;;;3.60;;
54328;SDS011;40710;51.120;13.136;2023-03-30T05:46:35;3.82;;;3.77;;
54328;SDS011;40710;51.120;13.136;2023-03-30T05:49:00;3.84;;;3.77;;
54328;SDS011;40710;51.120;13.136;2023-03-30T05:51:24;4.21;;;4.12;;
54328;SDS011;40710;51.120;13.136;2023-03-30T05:53:49;4.13;;;4.04;;
54328;SDS011;40710;51.120;13.136;2023-03-30T05:56:13;3.89;;;3.80;;
54328;SDS011;40710;51.120;13.136;2023-03-30T05:58:38;4.21;;;4.11;;
54328;SDS011;40710;51.120;13.136;2023-03-30T06:01:03;3.66;;;3.63;;
54328;SDS011;40710;51.120;13.136;2023-03-30T06:03:28;3.94;;;3.86;;
54328;SDS011;40710;51.120;13.136;2023-03-30T06:05:53;3.73;;;3.63;;
54328;SDS011;40710;51.120;13.136;2023-03-30T06:08:17;3.59;;;3.49;;
54328;SDS011;40710;51.120;13.136;2023-03-30T06:10:50;3.63;;;3.56;;
54328;SDS011;40710;51.120;13.136;2023-03-30T06:13:16;3.49;;;3.40;;
54328;SDS011;40710;51.120;13.136;2023-03-30T06:15:40;3.34;;;3.30;;
54328;SDS011;40710;51.120;13.136;2023-03-30T06:18:05;3.55;;;3.50;;
54328;SDS011;40710;51.120;13.136;2023-03-30T06:20:30;3.55;;;3.50;;
54328;SDS011;40710;51.120;13.136;2023-03-30T06:22:55;3.67;;;3.61;;
54328;SDS011;40710;51.120;13.136;2023-03-30T06:25:19;3.60;;;3.48;;
54328;SDS011;40710;51.120;13.136;2023-03-30T06:27:44;3.52;;;3.40;;
54328;SDS011;40710;51.120;13.136;2023-03-30T06:30:10;3.86;;;3.78;;
54328;SDS011;40710;51.120;13.136;2023-03-30T06:32:35;3.85;;;3.76;;
54328;SDS011;40710;51.120;13.136;2023-03-30T06:34:59;3.77;;;3.68;;
54328;SDS011;40710;51.120;13.136;2023-03-30T06:37:24;3.68;;;3.56;;
54328;SDS011;40710;51.120;13.136;2023-03-30T06:39:49;3.60;;;3.44;;
54328;SDS011;40710;51.120;13.136;2023-03-30T06:42:13;3.52;;;3.38;;
54328;SDS011;40710;51.120;13.136;2023-03-30T06:44:38;4.05;;;3.93;;
54328;SDS011;40710;51.120;13.136;2023-03-30T06:47:03;3.61;;;3.54;;
54328;SDS011;40710;51.120;13.136;2023-03-30T06:49:29;3.83;;;3.74;;
54328;SDS011;40710;51.120;13.136;2023-03-30T06:51:54;3.65;;;3.52;;
54328;SDS011;40710;51.120;13.136;2023-03-30T06:54:18;3.85;;;3.67;;
54328;SDS011;40710;51.120;13.136;2023-03-30T06:56:43;3.73;;;3.56;;
54328;SDS011;40710;51.120;13.136;2023-03-30T06:59:08;3.82;;;3.68;;
54328;SDS011;40710;51.120;13.136;2023-03-30T07:01:32;4.10;;;3.97;;
54328;SDS011;40710;51.120;13.136;2023-03-30T07:03:57;4.23;;;4.06;;
54328;SDS011;40710;51.120;13.136;2023-03-30T07:06:21;5.10;;;4.89;;
54328;SDS011;40710;51.120;13.136;2023-03-30T07:08:46;5.03;;;4.83;;
54328;SDS011;40710;51.120;13.136;2023-03-30T07:11:10;4.53;;;4.41;;
54328;SDS011;40710;51.120;13.136;2023-03-30T07:13:35;4.71;;;4.61;;
54328;SDS011;40710;51.120;13.136;2023-03-30T07:15:59;4.24;;;4.19;;
54328;SDS011;40710;51.120;13.136;2023-03-30T07:18:24;4.30;;;4.27;;
54328;SDS011;40710;51.120;13.136;2023-03-30T07:20:49;4.58;;;4.55;;
54328;SDS011;40710;51.120;13.136;2023-03-30T07:23:14;5.16;;;5.15;;
54328;SDS011;40710;51.120;13.136;2023-03-30T07:25:39;5.11;;;5.09;;
54328;SDS011;40710;51.120;13.136;2023-03-30T07:28:05;5.35;;;5.35;;
54328;SDS011;40710;51.120;13.136;2023-03-30T07:30:29;5.57;;;5.56;;
54328;SDS011;40710;51.120;13.136;2023-03-30T07:32:54;5.40;;;5.38;;
54328;SDS011;40710;51.120;13.136;2023-03-30T07:35:19;4.96;;;4.91;;
54328;SDS011;40710;51.120;13.136;2023-03-30T07:37:44;5.16;;;5.10;;
54328;SDS011;40710;51.120;13.136;2023-03-30T07:40:09;4.73;;;4.71;;
54328;SDS011;40710;51.120;13.136;2023-03-30T07:42:35;5.33;;;5.32;;
54328;SDS011;40710;51.120;13.136;2023-03-30T07:45:00;4.58;;;4.57;;
54328;SDS011;40710;51.120;13.136;2023-03-30T07:47:25;4.92;;;4.89;;
54328;SDS011;40710;51.120;13.136;2023-03-30T07:49:50;4.57;;;4.56;;
54328;SDS011;40710;51.120;13.136;2023-03-30T07:52:15;4.52;;;4.52;;
54328;SDS011;40710;51.120;13.136;2023-03-30T07:54:39;5.94;;;5.94;;
54328;SDS011;40710;51.120;13.136;2023-03-30T07:57:07;4.19;;;4.18;;
54328;SDS011;40710;51.120;13.136;2023-03-30T07:59:31;4.01;;;3.98;;
54328;SDS011;40710;51.120;13.136;2023-03-30T08:01:56;4.28;;;4.24;;
54328;SDS011;40710;51.120;13.136;2023-03-30T08:04:20;4.34;;;4.29;;
54328;SDS011;40710;51.120;13.136;2023-03-30T08:06:47;4.37;;;4.33;;
54328;SDS011;40710;51.120;13.136;2023-03-30T08:09:12;4.46;;;4.37;;
54328;SDS011;40710;51.120;13.136;2023-03-30T08:11:36;4.27;;;4.20;;
54328;SDS011;40710;51.120;13.136;2023-03-30T08:14:02;4.58;;;4.47;;
54328;SDS011;40710;51.120;13.136;2023-03-30T08:16:27;4.61;;;4.45;;
54328;SDS011;40710;51.120;13.136;2023-03-30T08:18:51;4.53;;;4.41;;
54328;SDS011;40710;51.120;13.136;2023-03-30T08:21:17;4.18;;;4.08;;
54328;SDS011;40710;51.120;13.136;2023-03-30T08:23:42;4.33;;;4.20;;
54328;SDS011;40710;51.120;13.136;2023-03-30T08:26:07;4.36;;;4.27;;
54328;SDS011;40710;51.120;13.136;2023-03-30T08:28:31;4.41;;;4.31;;
54328;SDS011;40710;51.120;13.136;2023-03-30T08:31:06;4.40;;;4.31;;
54328;SDS011;40710;51.120;13.136;2023-03-30T08:33:33;4.50;;;4.41;;
54328;SDS011;40710;51.120;13.136;2023-03-30T08:35:58;4.70;;;4.56;;
54328;SDS011;40710;51.120;13.136;2023-03-30T08:38:23;4.56;;;4.42;;
54328;SDS011;40710;51.120;13.136;2023-03-30T08:40:48;4.23;;;4.07;;
54328;SDS011;40710;51.120;13.136;2023-03-30T08:45:40;4.79;;;4.59;;
54328;SDS011;40710;51.120;13.136;2023-03-30T08:48:11;5.15;;;4.81;;
54328;SDS011;40710;51.120;13.136;2023-03-30T08:51:00;4.44;;;4.24;;
54328;SDS011;40710;51.120;13.136;2023-03-30T08:53:36;4.65;;;4.51;;
54328;SDS011;40710;51.120;13.136;2023-03-30T08:56:05;4.41;;;4.34;;
54328;SDS011;40710;51.120;13.136;2023-03-30T09:01:25;4.99;;;4.76;;
54328;SDS011;40710;51.120;13.136;2023-03-30T09:04:12;4.64;;;4.51;;
54328;SDS011;40710;51.120;13.136;2023-03-30T09:09:11;4.48;;;4.26;;
54328;SDS011;40710;51.120;13.136;2023-03-30T09:11:42;4.47;;;4.26;;
54328;SDS011;40710;51.120;13.136;2023-03-30T09:14:12;4.38;;;4.17;;
54328;SDS011;40710;51.120;13.136;2023-03-30T09:16:51;4.66;;;4.46;;
54328;SDS011;40710;51.120;13.136;2023-03-30T09:19:23;4.90;;;4.73;;
54328;SDS011;40710;51.120;13.136;2023-03-30T09:21:56;5.20;;;5.06;;
54328;SDS011;40710;51.120;13.136;2023-03-30T09:24:26;4.89;;;4.76;;
54328;SDS011;40710;51.120;13.136;2023-03-30T09:27:04;4.62;;;4.53;;
54328;SDS011;40710;51.120;13.136;2023-03-30T09:29:45;4.71;;;4.62;;
54328;SDS011;40710;51.120;13.136;2023-03-30T09:32:13;5.00;;;4.83;;
54328;SDS011;40710;51.120;13.136;2023-03-30T09:34:49;5.09;;;4.90;;
54328;SDS011;40710;51.120;13.136;2023-03-30T09:37:27;5.69;;;5.49;;
54328;SDS011;40710;51.120;13.136;2023-03-30T09:39:53;5.24;;;5.15;;
54328;SDS011;40710;51.120;13.136;2023-03-30T09:47:48;5.15;;;5.02;;
54328;SDS011;40710;51.120;13.136;2023-03-30T09:50:17;5.22;;;5.06;;
54328;SDS011;40710;51.120;13.136;2023-03-30T09:52:57;4.85;;;4.70;;
54328;SDS011;40710;51.120;13.136;2023-03-30T09:55:29;5.09;;;4.94;;
54328;SDS011;40710;51.120;13.136;2023-03-30T10:01:12;5.56;;;5.32;;
54328;SDS011;40710;51.120;13.136;2023-03-30T10:03:40;4.97;;;4.77;;
54328;SDS011;40710;51.120;13.136;2023-03-30T10:08:33;4.69;;;4.58;;
54328;SDS011;40710;51.120;13.136;2023-03-30T10:11:07;4.34;;;4.25;;
54328;SDS011;40710;51.120;13.136;2023-03-30T10:13:34;4.21;;;4.10;;
54328;SDS011;40710;51.120;13.136;2023-03-30T10:16:06;4.57;;;4.47;;
54328;SDS011;40710;51.120;13.136;2023-03-30T10:18:37;4.59;;;4.49;;
54328;SDS011;40710;51.120;13.136;2023-03-30T10:23:38;3.89;;;3.79;;
54328;SDS011;40710;51.120;13.136;2023-03-30T10:26:06;4.15;;;3.99;;
54328;SDS011;40710;51.120;13.136;2023-03-30T10:28:39;3.70;;;3.59;;
54328;SDS011;40710;51.120;13.136;2023-03-30T10:31:06;4.03;;;3.90;;
54328;SDS011;40710;51.120;13.136;2023-03-30T10:33:39;3.57;;;3.43;;
54328;SDS011;40710;51.120;13.136;2023-03-30T10:36:06;6.74;;;6.47;;
54328;SDS011;40710;51.120;13.136;2023-03-30T10:38:33;3.64;;;3.57;;
54328;SDS011;40710;51.120;13.136;2023-03-30T10:40:59;3.39;;;3.33;;
54328;SDS011;40710;51.120;13.136;2023-03-30T10:43:31;3.65;;;3.54;;
54328;SDS011;40710;51.120;13.136;2023-03-30T10:46:05;3.59;;;3.46;;
54328;SDS011;40710;51.120;13.136;2023-03-30T10:48:48;3.60;;;3.41;;
54328;SDS011;40710;51.120;13.136;2023-03-30T10:54:22;3.38;;;3.25;;
54328;SDS011;40710;51.120;13.136;2023-03-30T10:57:15;3.61;;;3.49;;
54328;SDS011;40710;51.120;13.136;2023-03-30T11:02:38;3.70;;;3.59;;
54328;SDS011;40710;51.120;13.136;2023-03-30T11:07:59;3.76;;;3.59;;
54328;SDS011;40710;51.120;13.136;2023-03-30T11:10:29;3.83;;;3.74;;
54328;SDS011;40710;51.120;13.136;2023-03-30T11:13:00;3.90;;;3.82;;
54328;SDS011;40710;51.120;13.136;2023-03-30T11:15:52;4.06;;;3.99;;
54328;SDS011;40710;51.120;13.136;2023-03-30T11:21:09;4.26;;;4.21;;
54328;SDS011;40710;51.120;13.136;2023-03-30T11:24:02;4.28;;;4.24;;
54328;SDS011;40710;51.120;13.136;2023-03-30T11:32:14;3.99;;;3.99;;
54328;SDS011;40710;51.120;13.136;2023-03-30T11:38:04;4.21;;;4.20;;
54328;SDS011;40710;51.120;13.136;2023-03-30T11:40:40;4.18;;;4.18;;
54328;SDS011;40710;51.120;13.136;2023-03-30T11:43:10;4.16;;;4.14;;
54328;SDS011;40710;51.120;13.136;2023-03-30T11:45:47;4.16;;;4.15;;
54328;SDS011;40710;51.120;13.136;2023-03-30T11:48:25;4.68;;;4.68;;
54328;SDS011;40710;51.120;13.136;2023-03-30T11:51:21;4.72;;;4.72;;
54328;SDS011;40710;51.120;13.136;2023-03-30T11:57:24;4.71;;;4.71;;
54328;SDS011;40710;51.120;13.136;2023-03-30T12:00:10;5.06;;;5.06;;
54328;SDS011;40710;51.120;13.136;2023-03-30T12:02:53;5.06;;;5.06;;
54328;SDS011;40710;51.120;13.136;2023-03-30T12:05:34;5.58;;;5.58;;
54328;SDS011;40710;51.120;13.136;2023-03-30T12:08:16;5.91;;;5.91;;
54328;SDS011;40710;51.120;13.136;2023-03-30T12:10:50;5.70;;;5.70;;
54328;SDS011;40710;51.120;13.136;2023-03-30T12:13:25;5.79;;;5.79;;
54328;SDS011;40710;51.120;13.136;2023-03-30T12:15:57;6.10;;;6.10;;
54328;SDS011;40710;51.120;13.136;2023-03-30T12:18:37;5.77;;;5.77;;
54328;SDS011;40710;51.120;13.136;2023-03-30T12:21:16;5.90;;;5.90;;
54328;SDS011;40710;51.120;13.136;2023-03-30T12:24:14;5.95;;;5.95;;
54328;SDS011;40710;51.120;13.136;2023-03-30T12:26:56;7.37;;;7.37;;
54328;SDS011;40710;51.120;13.136;2023-03-30T12:29:21;6.47;;;6.47;;
54328;SDS011;40710;51.120;13.136;2023-03-30T12:31:46;6.12;;;6.12;;
54328;SDS011;40710;51.120;13.136;2023-03-30T12:34:14;6.39;;;6.39;;
54328;SDS011;40710;51.120;13.136;2023-03-30T12:36:40;6.72;;;6.72;;
54328;SDS011;40710;51.120;13.136;2023-03-30T12:39:29;6.52;;;6.52;;
54328;SDS011;40710;51.120;13.136;2023-03-30T12:42:02;7.14;;;7.14;;
54328;SDS011;40710;51.120;13.136;2023-03-30T12:44:34;6.65;;;6.65;;
54328;SDS011;40710;51.120;13.136;2023-03-30T12:47:30;6.12;;;6.12;;
54328;SDS011;40710;51.120;13.136;2023-03-30T12:50:10;6.59;;;6.59;;
54328;SDS011;40710;51.120;13.136;2023-03-30T12:55:45;6.64;;;6.64;;
54328;SDS011;40710;51.120;13.136;2023-03-30T13:01:29;6.61;;;6.61;;
54328;SDS011;40710;51.120;13.136;2023-03-30T13:04:01;6.50;;;6.50;;
54328;SDS011;40710;51.120;13.136;2023-03-30T13:06:35;6.53;;;6.53;;
54328;SDS011;40710;51.120;13.136;2023-03-30T13:11:43;6.27;;;6.27;;
54328;SDS011;40710;51.120;13.136;2023-03-30T13:14:18;6.74;;;6.74;;
54328;SDS011;40710;51.120;13.136;2023-03-30T13:21:57;5.74;;;5.74;;
54328;SDS011;40710;51.120;13.136;2023-03-30T13:29:48;5.43;;;5.43;;
54328;SDS011;40710;51.120;13.136;2023-03-30T13:32:18;6.07;;;6.07;;
54328;SDS011;40710;51.120;13.136;2023-03-30T13:38:17;4.76;;;4.76;;
54328;SDS011;40710;51.120;13.136;2023-03-30T13:44:22;4.39;;;4.39;;
54328;SDS011;40710;51.120;13.136;2023-03-30T13:47:03;4.40;;;4.40;;
54328;SDS011;40710;51.120;13.136;2023-03-30T13:49:57;4.30;;;4.30;;
54328;SDS011;40710;51.120;13.136;2023-03-30T13:52:27;4.29;;;4.29;;
54328;SDS011;40710;51.120;13.136;2023-03-30T13:55:07;6.15;;;6.15;;
54328;SDS011;40710;51.120;13.136;2023-03-30T13:57:50;3.99;;;3.99;;
54328;SDS011;40710;51.120;13.136;2023-03-30T14:00:44;4.11;;;4.11;;
54328;SDS011;40710;51.120;13.136;2023-03-30T14:06:01;3.70;;;3.70;;
54328;SDS011;40710;51.120;13.136;2023-03-30T14:08:40;3.95;;;3.94;;
54328;SDS011;40710;51.120;13.136;2023-03-30T14:11:15;3.74;;;3.73;;
54328;SDS011;40710;51.120;13.136;2023-03-30T14:13:43;4.03;;;4.03;;
54328;SDS011;40710;51.120;13.136;2023-03-30T14:16:20;4.28;;;4.28;;
54328;SDS011;40710;51.120;13.136;2023-03-30T14:18:47;4.15;;;4.14;;
54328;SDS011;40710;51.120;13.136;2023-03-30T14:21:15;3.82;;;3.82;;
54328;SDS011;40710;51.120;13.136;2023-03-30T14:23:44;3.86;;;3.85;;
54328;SDS011;40710;51.120;13.136;2023-03-30T14:26:15;3.86;;;3.86;;
54328;SDS011;40710;51.120;13.136;2023-03-30T14:28:41;4.19;;;4.19;;
54328;SDS011;40710;51.120;13.136;2023-03-30T14:31:11;4.18;;;4.18;;
54328;SDS011;40710;51.120;13.136;2023-03-30T14:33:42;3.80;;;3.80;;
54328;SDS011;40710;51.120;13.136;2023-03-30T14:36:07;3.92;;;3.92;;
54328;SDS011;40710;51.120;13.136;2023-03-30T14:38:37;3.45;;;3.45;;
54328;SDS011;40710;51.120;13.136;2023-03-30T14:41:04;3.57;;;3.57;;
54328;SDS011;40710;51.120;13.136;2023-03-30T14:43:40;3.77;;;3.77;;
54328;SDS011;40710;51.120;13.136;2023-03-30T14:46:10;3.63;;;3.63;;
54328;SDS011;40710;51.120;13.136;2023-03-30T14:48:36;3.70;;;3.70;;
54328;SDS011;40710;51.120;13.136;2023-03-30T14:51:06;3.40;;;3.40;;
54328;SDS011;40710;51.120;13.136;2023-03-30T14:53:44;3.61;;;3.61;;
54328;SDS011;40710;51.120;13.136;2023-03-30T14:56:49;3.71;;;3.71;;
54328;SDS011;40710;51.120;13.136;2023-03-30T14:59:21;3.83;;;3.83;;
54328;SDS011;40710;51.120;13.136;2023-03-30T15:01:48;3.33;;;3.33;;
54328;SDS011;40710;51.120;13.136;2023-03-30T15:04:15;3.47;;;3.47;;
54328;SDS011;40710;51.120;13.136;2023-03-30T15:06:41;3.46;;;3.46;;
54328;SDS011;40710;51.120;13.136;2023-03-30T15:09:12;3.52;;;3.52;;
54328;SDS011;40710;51.120;13.136;2023-03-30T15:11:40;3.77;;;3.76;;
54328;SDS011;40710;51.120;13.136;2023-03-30T15:14:08;3.37;;;3.36;;
54328;SDS011;40710;51.120;13.136;2023-03-30T15:16:40;2.01;;;2.01;;
54328;SDS011;40710;51.120;13.136;2023-03-30T15:19:12;1.27;;;1.25;;
54328;SDS011;40710;51.120;13.136;2023-03-30T15:21:49;1.21;;;1.16;;
54328;SDS011;40710;51.120;13.136;2023-03-30T15:24:22;1.52;;;1.44;;
54328;SDS011;40710;51.120;13.136;2023-03-30T15:26:52;1.40;;;1.32;;
54328;SDS011;40710;51.120;13.136;2023-03-30T15:29:20;1.38;;;1.30;;
54328;SDS011;40710;51.120;13.136;2023-03-30T15:31:56;1.07;;;1.00;;
54328;SDS011;40710;51.120;13.136;2023-03-30T15:37:21;1.02;;;0.95;;
54328;SDS011;40710;51.120;13.136;2023-03-30T15:39:47;1.11;;;1.03;;
54328;SDS011;40710;51.120;13.136;2023-03-30T15:42:12;1.23;;;1.15;;
54328;SDS011;40710;51.120;13.136;2023-03-30T15:44:37;1.23;;;1.17;;
54328;SDS011;40710;51.120;13.136;2023-03-30T15:47:05;1.24;;;1.19;;
54328;SDS011;40710;51.120;13.136;2023-03-30T15:49:41;1.44;;;1.39;;
54328;SDS011;40710;51.120;13.136;2023-03-30T15:52:11;1.32;;;1.28;;
54328;SDS011;40710;51.120;13.136;2023-03-30T15:54:43;1.23;;;1.21;;
54328;SDS011;40710;51.120;13.136;2023-03-30T15:57:19;1.32;;;1.29;;
54328;SDS011;40710;51.120;13.136;2023-03-30T15:59:49;1.42;;;1.39;;
54328;SDS011;40710;51.120;13.136;2023-03-30T16:02:22;1.54;;;1.52;;
54328;SDS011;40710;51.120;13.136;2023-03-30T16:04:59;1.65;;;1.63;;
54328;SDS011;40710;51.120;13.136;2023-03-30T16:07:24;1.87;;;1.86;;
54328;SDS011;40710;51.120;13.136;2023-03-30T16:09:48;1.35;;;1.35;;
54328;SDS011;40710;51.120;13.136;2023-03-30T16:12:14;1.15;;;1.14;;
54328;SDS011;40710;51.120;13.136;2023-03-30T16:14:42;1.38;;;1.36;;
54328;SDS011;40710;51.120;13.136;2023-03-30T16:17:06;1.34;;;1.32;;
54328;SDS011;40710;51.120;13.136;2023-03-30T16:19:33;1.36;;;1.34;;
54328;SDS011;40710;51.120;13.136;2023-03-30T16:21:57;1.07;;;1.06;;
54328;SDS011;40710;51.120;13.136;2023-03-30T16:24:22;1.20;;;1.18;;
54328;SDS011;40710;51.120;13.136;2023-03-30T16:26:46;2.17;;;2.15;;
54328;SDS011;40710;51.120;13.136;2023-03-30T16:29:18;2.34;;;2.32;;